Time;durP1;ratioP1;P1;durP2;ratioP2;P2;SDS_P1;SDS_P2;PMS_P1;PMS_P2;Temp;Humidity;BMP_temperature;BMP_pressure;BME280_temperature;BME280_humidity;BME280_pressure;Samples;Min_cycle;Max_cycle;Signal;HPM_P1;HPM_P2
2021/08/05 09:09:13;;;;;;;5.35;4.25;;;;;;;;;;2090344;27;99868;-19
2021/08/05 09:10:15;;;;;;;6.95;4.07;;;;;;;;;;2089441;27;99875;-17
2021/08/05 09:11:16;;;;;;;4.55;3.65;;;;;;;;;;2089477;27;99990;-19
2021/08/05 09:12:18;;;;;;;5.65;4.25;;;;;;;;;;2089088;27;100009;-20
2021/08/05 09:13:19;;;;;;;5.63;3.90;;;;;;;;;;2089143;27;100625;-23
2021/08/05 09:14:38;;;;;;;;;;;;;;;;;;2089085;27;100031;-20
2021/08/05 09:15:42;;;;;;;5.18;3.42;;;;;;;;;;2088809;27;100589;-22
2021/08/05 09:16:43;;;;;;;4.50;3.60;;;;;;;;;;2089270;27;99935;-23
2021/08/05 09:17:44;;;;;;;4.10;3.67;;;;;;;;;;2089423;27;99959;-19
2021/08/05 09:18:44;;;;;;;;;;;;;;;;;;2089623;27;101052;-19
2021/08/05 09:19:45;;;;;;;4.60;3.43;;;;;;;;;;2088941;27;99978;-22
2021/08/05 09:21:09;;;;;;;5.07;3.30;;;;;;;;;;2089096;27;99883;-22
2021/08/05 09:22:10;;;;;;;6.38;3.70;;;;;;;;;;2089147;27;100454;-21
2021/08/05 09:23:10;;;;;;;;;;;;;;;;;;2089733;27;99840;-23
2021/08/05 09:24:11;;;;;;;4.38;3.20;;;;;;;;;;2089143;27;100341;-19
2021/08/05 09:25:22;;;;;;;;;;;;;;;;;;2089863;27;99995;-20
2021/08/05 09:26:34;;;;;;;5.65;3.30;;;;;;;;;;2080094;28;99918;-23
2021/08/05 09:27:35;;;;;;;4.93;3.08;;;;;;;;;;2081668;27;100254;-18
2021/08/05 09:28:36;;;;;;;;;;;;;;;;;;2089229;27;100034;-22
2021/08/05 09:29:44;;;;;;;3.53;3.22;;;;;;;;;;2089068;27;99942;-20
2021/08/05 09:30:45;;;;;;;4.63;3.30;;;;;;;;;;2088085;27;100065;-21
2021/08/05 09:31:55;;;;;;;;;;;;;;;;;;2088730;27;100044;-22
2021/08/05 09:33:16;;;;;;;6.03;3.78;;;;;;;;;;2089396;27;100104;-18
2021/08/05 09:34:20;;;;;;;4.18;3.25;;;;;;;;;;2088848;27;99982;-21
2021/08/05 09:35:28;;;;;;;4.22;3.35;;;;;;;;;;2088853;27;100180;-18
2021/08/05 09:36:28;;;;;;;4.13;3.40;;;;;;;;;;2088739;27;100077;-22
2021/08/05 09:37:39;;;;;;;;;;;;;;;;;;2089095;27;100016;-23
2021/08/05 09:38:56;;;;;;;4.55;3.05;;;;;;;;;;2088487;27;100129;-21
2021/08/05 09:40:07;;;;;;;4.03;3.30;;;;;;;;;;2088560;27;99974;-20
2021/08/05 09:41:09;;;;;;;;;;;;;;;;;;2083624;27;100119;-19
2021/08/05 09:42:10;;;;;;;;;;;;;;;;;;2088805;27;100088;-21
2021/08/05 09:43:22;;;;;;;4.97;3.53;;;;;;;;;;2089035;27;100355;-21
2021/08/05 09:44:24;;;;;;;3.42;3.13;;;;;;;;;;2089163;27;99852;-23
2021/08/05 09:45:39;;;;;;;4.03;3.40;;;;;;;;;;2089046;27;99804;-18
2021/08/05 09:46:40;;;;;;;4.43;3.33;;;;;;;;;;2088962;27;99987;-22
2021/08/05 09:47:42;;;;;;;4.03;3.30;;;;;;;;;;2089093;27;99883;-22
2021/08/05 09:48:44;;;;;;;4.00;3.15;;;;;;;;;;2079904;28;99961;-19
2021/08/05 09:49:49;;;;;;;4.40;3.30;;;;;;;;;;2080081;27;99985;-19
2021/08/05 09:51:06;;;;;;;5.00;3.20;;;;;;;;;;2088355;27;99976;-19
2021/08/05 09:52:10;;;;;;;4.45;3.47;;;;;;;;;;2088391;27;100596;-21
2021/08/05 09:53:11;;;;;;;5.10;3.55;;;;;;;;;;2088825;27;99879;-23
2021/08/05 09:54:12;;;;;;;4.38;3.42;;;;;;;;;;2089102;27;100070;-22
2021/08/05 09:55:20;;;;;;;;;;;;;;;;;;2088910;27;99893;-19
2021/08/05 09:56:21;;;;;;;4.35;3.38;;;;;;;;;;2088642;27;99807;-20
2021/08/05 09:57:24;;;;;;;3.92;3.38;;;;;;;;;;2088843;27;100088;-23
2021/08/05 09:58:28;;;;;;;5.60;3.38;;;;;;;;;;2088995;27;100030;-23
2021/08/05 09:59:29;;;;;;;4.38;3.88;;;;;;;;;;2088891;27;100053;-22
2021/08/05 10:00:42;;;;;;;;;;;;;;;;;;2089532;27;99952;-20
2021/08/05 10:02:07;;;;;;;5.10;3.05;;;;;;;;;;2088350;27;100703;-22
2021/08/05 10:03:08;;;;;;;5.28;3.08;;;;;;;;;;2088712;27;100554;-22
2021/08/05 10:04:30;;;;;;;4.05;3.38;;;;;;;;;;2089135;27;99936;-22
2021/08/05 10:05:31;;;;;;;3.33;2.90;;;;;;;;;;2089238;27;100162;-22
2021/08/05 10:06:51;;;;;;;;;;;;;;;;;;2089522;27;100431;-18
2021/08/05 10:07:59;;;;;;;5.75;3.40;;;;;;;;;;2087364;27;99982;-21
2021/08/05 10:08:59;;;;;;;5.43;3.28;;;;;;;;;;2087854;27;100128;-22
2021/08/05 10:10:13;;;;;;;6.93;3.28;;;;;;;;;;2082506;27;100344;-22
2021/08/05 10:11:16;;;;;;;7.32;3.15;;;;;;;;;;2082463;27;100134;-20
2021/08/05 10:12:31;;;;;;;4.55;3.22;;;;;;;;;;2073568;28;100099;-19
2021/08/05 10:13:34;;;;;;;4.32;3.22;;;;;;;;;;2075959;27;100046;-20
2021/08/05 10:14:36;;;;;;;5.28;3.45;;;;;;;;;;2082962;27;100072;-19
2021/08/05 10:15:48;;;;;;;4.25;3.10;;;;;;;;;;2065309;28;100183;-23
2021/08/05 10:16:51;;;;;;;5.63;3.10;;;;;;;;;;2069321;28;100004;-23
2021/08/05 10:17:57;;;;;;;4.38;3.47;;;;;;;;;;2082533;27;100405;-20
2021/08/05 10:19:00;;;;;;;4.50;3.03;;;;;;;;;;2081716;28;100019;-20
2021/08/05 10:20:04;;;;;;;3.63;3.30;;;;;;;;;;2082246;28;100016;-20
2021/08/05 10:21:09;;;;;;;5.07;3.50;;;;;;;;;;2073731;28;100324;-23
2021/08/05 10:22:12;;;;;;;4.03;3.20;;;;;;;;;;2074669;28;100499;-19
2021/08/05 10:23:14;;;;;;;7.78;3.25;;;;;;;;;;2065634;28;99984;-22
2021/08/05 10:24:16;;;;;;;4.32;3.50;;;;;;;;;;2065762;28;100037;-23
2021/08/05 10:25:21;;;;;;;4.88;3.38;;;;;;;;;;2082284;28;100038;-20
2021/08/05 10:26:23;;;;;;;5.30;3.10;;;;;;;;;;2082907;27;99939;-21
2021/08/05 10:27:25;;;;;;;5.25;3.17;;;;;;;;;;2081618;27;99949;-22
2021/08/05 10:28:28;;;;;;;5.53;3.33;;;;;;;;;;2082001;27;100574;-19
2021/08/05 10:29:29;;;;;;;3.90;3.25;;;;;;;;;;2082433;28;100063;-18
2021/08/05 10:30:31;;;;;;;6.15;3.13;;;;;;;;;;2073988;28;100572;-22
2021/08/05 10:31:36;;;;;;;4.70;3.00;;;;;;;;;;2066067;28;99919;-18
2021/08/05 10:32:39;;;;;;;5.78;2.92;;;;;;;;;;2074264;28;100329;-22
2021/08/05 10:33:41;;;;;;;3.20;2.90;;;;;;;;;;2081978;28;100014;-23
2021/08/05 10:34:43;;;;;;;3.90;3.50;;;;;;;;;;2041422;28;100101;-21
2021/08/05 10:35:48;;;;;;;3.17;2.80;;;;;;;;;;2050718;28;99883;-22
2021/08/05 10:36:50;;;;;;;4.40;3.38;;;;;;;;;;2058057;28;100334;-23
2021/08/05 10:37:52;;;;;;;5.07;3.47;;;;;;;;;;2059030;28;100506;-23
2021/08/05 10:38:54;;;;;;;6.32;3.30;;;;;;;;;;2057333;28;100775;-20
2021/08/05 10:39:57;;;;;;;6.07;3.15;;;;;;;;;;2058469;28;99951;-18
2021/08/05 10:41:01;;;;;;;3.40;2.88;;;;;;;;;;2057737;28;100297;-21
2021/08/05 10:42:07;;;;;;;3.22;2.63;;;;;;;;;;2058700;28;100002;-22
2021/08/05 10:43:08;;;;;;;4.50;2.80;;;;;;;;;;2074460;28;99975;-23
2021/08/05 10:44:10;;;;;;;6.50;3.10;;;;;;;;;;2073961;28;100106;-21
2021/08/05 10:45:13;;;;;;;4.22;3.00;;;;;;;;;;2082153;28;100066;-21
2021/08/05 10:46:14;;;;;;;6.13;3.40;;;;;;;;;;2074551;28;99924;-21
2021/08/05 10:47:26;;;;;;;3.25;2.85;;;;;;;;;;2065887;28;100621;-19
2021/08/05 10:48:27;;;;;;;;;;;;;;;;;;2051880;28;100160;-19
2021/08/05 10:49:29;;;;;;;4.03;2.80;;;;;;;;;;2065912;28;100172;-22
2021/08/05 10:50:37;;;;;;;3.95;2.80;;;;;;;;;;2049595;28;100055;-19
2021/08/05 10:51:42;;;;;;;4.53;2.90;;;;;;;;;;2051627;28;100431;-23
2021/08/05 10:52:51;;;;;;;4.45;2.97;;;;;;;;;;2059250;28;99872;-22
2021/08/05 10:53:52;;;;;;;3.08;2.65;;;;;;;;;;2066429;28;99932;-19
2021/08/05 10:54:54;;;;;;;3.97;3.03;;;;;;;;;;2057354;28;99933;-20
2021/08/05 10:56:18;;;;;;;3.10;2.80;;;;;;;;;;2049334;28;100061;-19
2021/08/05 10:57:25;;;;;;;4.13;2.67;;;;;;;;;;2069038;28;100167;-23
2021/08/05 10:58:30;;;;;;;3.92;2.78;;;;;;;;;;2073547;28;100931;-21
2021/08/05 10:59:31;;;;;;;3.67;2.88;;;;;;;;;;2065737;28;100022;-20
2021/08/05 11:00:52;;;;;;;3.45;3.15;;;;;;;;;;2073555;28;99999;-20
2021/08/05 11:01:55;;;;;;;3.95;3.13;;;;;;;;;;2073963;28;99921;-23
2021/08/05 11:02:57;;;;;;;4.97;3.00;;;;;;;;;;2056559;28;100037;-20
2021/08/05 11:03:58;;;;;;;3.83;2.88;;;;;;;;;;2057374;28;100967;-20
2021/08/05 11:04:59;;;;;;;;;;;;;;;;;;2065881;28;100093;-21
2021/08/05 11:06:06;;;;;;;3.25;2.90;;;;;;;;;;2065183;28;100060;-19
2021/08/05 11:07:23;;;;;;;3.90;2.90;;;;;;;;;;2064879;28;100161;-21
2021/08/05 11:08:25;;;;;;;6.15;3.10;;;;;;;;;;2060755;28;100138;-25
2021/08/05 11:09:31;;;;;;;5.72;3.15;;;;;;;;;;2073707;28;100024;-21
2021/08/05 11:10:36;;;;;;;3.63;2.80;;;;;;;;;;2074246;28;100038;-22
2021/08/05 11:11:38;;;;;;;3.40;3.00;;;;;;;;;;2056787;28;99993;-23
2021/08/05 11:12:46;;;;;;;3.58;2.90;;;;;;;;;;2058153;28;100167;-21
2021/08/05 11:14:08;;;;;;;4.43;3.08;;;;;;;;;;2073512;28;100023;-21
2021/08/05 11:15:23;;;;;;;3.15;2.85;;;;;;;;;;2073220;28;100046;-19
2021/08/05 11:17:07;;;;;;;3.05;2.70;;;;;;;;;;2081353;28;99897;-21
2021/08/05 11:18:16;;;;;;;3.03;2.72;;;;;;;;;;2047877;28;100099;-22
2021/08/05 11:19:25;;;;;;;3.72;2.75;;;;;;;;;;2051491;28;100150;-20
2021/08/05 11:20:27;;;;;;;5.82;3.15;;;;;;;;;;2056052;28;100078;-19
2021/08/05 11:21:29;;;;;;;3.42;3.10;;;;;;;;;;2048384;28;100601;-23
2021/08/05 11:22:30;;;;;;;5.03;3.30;;;;;;;;;;2056001;28;100040;-21
2021/08/05 11:23:34;;;;;;;3.35;2.70;;;;;;;;;;2070326;28;99927;-19
2021/08/05 11:24:43;;;;;;;3.38;2.72;;;;;;;;;;2072851;28;100094;-23
2021/08/05 11:25:53;;;;;;;3.28;2.92;;;;;;;;;;2074139;28;100140;-19
2021/08/05 11:27:12;;;;;;;4.50;3.13;;;;;;;;;;2082417;27;100357;-21
2021/08/05 11:28:52;;;;;;;3.65;2.72;;;;;;;;;;2081449;28;99957;-19
2021/08/05 11:29:54;;;;;;;2.78;2.58;;;;;;;;;;2069772;28;99955;-18
2021/08/05 11:31:08;;;;;;;5.60;3.17;;;;;;;;;;2057426;28;100065;-20
2021/08/05 11:32:25;;;;;;;4.20;2.75;;;;;;;;;;2060013;28;100607;-20
2021/08/05 11:34:59;;;;;;;3.40;2.90;;;;;;;;;;2067101;27;100140;-23
2021/08/05 11:36:22;;;;;;;4.80;2.83;;;;;;;;;;2073202;28;99996;-21
2021/08/05 11:37:27;;;;;;;3.00;2.70;;;;;;;;;;2051835;28;100474;-21
2021/08/05 11:38:33;;;;;;;4.63;2.80;;;;;;;;;;2049400;28;100185;-23
2021/08/05 11:39:52;;;;;;;3.40;3.10;;;;;;;;;;2049230;28;100120;-22
2021/08/05 11:40:55;;;;;;;3.38;2.80;;;;;;;;;;2048069;28;99898;-21
2021/08/05 11:42:14;;;;;;;3.28;2.97;;;;;;;;;;2040842;28;100050;-20
2021/08/05 11:43:25;;;;;;;3.78;3.08;;;;;;;;;;2047802;28;100111;-23
2021/08/05 11:44:57;;;;;;;4.43;2.90;;;;;;;;;;2059940;28;100008;-22
2021/08/05 11:46:20;;;;;;;3.28;2.90;;;;;;;;;;2050128;28;100143;-24
2021/08/05 11:47:42;;;;;;;3.50;2.63;;;;;;;;;;2045955;28;99970;-20
2021/08/05 11:48:44;;;;;;;3.25;2.95;;;;;;;;;;2062833;28;100034;-22
2021/08/05 11:50:07;;;;;;;4.20;2.78;;;;;;;;;;2064662;28;100287;-21
2021/08/05 11:51:12;;;;;;;3.25;2.67;;;;;;;;;;2051613;28;100087;-20
2021/08/05 11:52:27;;;;;;;4.07;3.08;;;;;;;;;;2041924;28;100055;-20
2021/08/05 11:53:29;;;;;;;3.08;2.83;;;;;;;;;;2073351;28;100182;-20
2021/08/05 11:54:33;;;;;;;3.00;2.70;;;;;;;;;;2064038;28;99938;-20
2021/08/05 11:55:38;;;;;;;3.95;2.63;;;;;;;;;;2055806;28;100071;-22
2021/08/05 11:56:41;;;;;;;3.30;2.95;;;;;;;;;;2057091;28;100552;-22
2021/08/05 11:57:49;;;;;;;4.03;2.97;;;;;;;;;;2048406;28;99947;-20
2021/08/05 11:58:51;;;;;;;3.20;2.90;;;;;;;;;;2050295;28;100012;-21
2021/08/05 11:59:54;;;;;;;3.65;2.70;;;;;;;;;;2047957;28;102113;-20
2021/08/05 12:00:56;;;;;;;3.78;2.92;;;;;;;;;;2063413;28;100455;-20
2021/08/05 12:02:14;;;;;;;4.00;3.00;;;;;;;;;;2068830;28;100213;-19
2021/08/05 12:03:16;;;;;;;3.47;2.83;;;;;;;;;;2070607;28;100209;-22
2021/08/05 12:04:19;;;;;;;3.05;2.75;;;;;;;;;;2072668;28;100270;-20
2021/08/05 12:05:25;;;;;;;3.90;2.70;;;;;;;;;;2071333;28;100044;-19
2021/08/05 12:06:27;;;;;;;3.33;2.85;;;;;;;;;;2064946;28;100318;-20
2021/08/05 12:07:30;;;;;;;3.40;2.80;;;;;;;;;;2064108;28;100182;-23
2021/08/05 12:08:33;;;;;;;6.13;3.20;;;;;;;;;;2072366;28;100191;-22
2021/08/05 12:09:36;;;;;;;5.47;2.95;;;;;;;;;;2056049;28;100280;-23
2021/08/05 12:10:40;;;;;;;4.82;2.65;;;;;;;;;;2048668;28;100163;-21
2021/08/05 12:11:44;;;;;;;5.10;2.97;;;;;;;;;;2049327;28;99992;-20
2021/08/05 12:12:55;;;;;;;2.85;2.55;;;;;;;;;;2048312;28;100020;-22
2021/08/05 12:14:04;;;;;;;3.17;2.85;;;;;;;;;;2051506;28;100411;-21
2021/08/05 12:15:08;;;;;;;4.70;2.90;;;;;;;;;;2059126;28;100073;-22
2021/08/05 12:16:11;;;;;;;4.63;3.00;;;;;;;;;;2039912;28;99932;-22
2021/08/05 12:17:13;;;;;;;4.85;2.83;;;;;;;;;;2048325;28;99911;-22
2021/08/05 12:18:20;;;;;;;4.75;3.28;;;;;;;;;;2048417;28;100831;-23
2021/08/05 12:19:22;;;;;;;5.45;2.70;;;;;;;;;;2057497;28;100221;-20
2021/08/05 12:20:35;;;;;;;3.72;3.42;;;;;;;;;;2064369;28;100115;-21
2021/08/05 12:21:48;;;;;;;3.00;2.80;;;;;;;;;;2071954;28;99986;-19
2021/08/05 12:22:52;;;;;;;3.20;2.88;;;;;;;;;;2057626;28;99963;-23
2021/08/05 12:23:54;;;;;;;8.85;4.03;;;;;;;;;;2040441;28;100395;-23
2021/08/05 12:24:56;;;;;;;20.02;7.03;;;;;;;;;;2048066;28;100205;-19
2021/08/05 12:26:07;;;;;;;31.58;10.82;;;;;;;;;;2047992;28;99985;-19
2021/08/05 12:27:09;;;;;;;21.58;7.82;;;;;;;;;;2066927;28;100326;-19
2021/08/05 12:28:13;;;;;;;25.70;8.45;;;;;;;;;;2072668;28;100048;-17
2021/08/05 12:29:14;;;;;;;28.38;10.32;;;;;;;;;;2064586;28;100045;-20
2021/08/05 12:30:15;;;;;;;23.02;9.75;;;;;;;;;;2064144;28;100411;-20
2021/08/05 12:31:20;;;;;;;26.17;9.95;;;;;;;;;;2047543;28;100126;-18
2021/08/05 12:32:21;;;;;;;34.30;11.27;;;;;;;;;;2057868;28;100145;-21
2021/08/05 12:33:25;;;;;;;33.67;11.65;;;;;;;;;;2071617;28;99962;-18
2021/08/05 12:34:27;;;;;;;32.85;11.55;;;;;;;;;;2064741;28;99947;-18
2021/08/05 12:35:30;;;;;;;32.80;11.40;;;;;;;;;;2063734;28;100107;-19
2021/08/05 12:36:32;;;;;;;31.70;11.13;;;;;;;;;;2049092;28;100106;-21
2021/08/05 12:37:35;;;;;;;28.90;11.77;;;;;;;;;;2047528;28;100093;-23
2021/08/05 12:38:47;;;;;;;31.67;11.70;;;;;;;;;;2064470;28;100126;-20
2021/08/05 12:39:49;;;;;;;29.15;10.75;;;;;;;;;;2065702;28;100014;-22
2021/08/05 12:40:52;;;;;;;34.03;12.15;;;;;;;;;;2072995;28;99992;-21
2021/08/05 12:41:56;;;;;;;33.28;10.95;;;;;;;;;;2063795;28;100129;-19
2021/08/05 12:43:00;;;;;;;31.92;11.00;;;;;;;;;;2049147;28;100512;-20
2021/08/05 12:44:19;;;;;;;28.48;10.75;;;;;;;;;;2065028;28;100003;-20
2021/08/05 12:45:21;;;;;;;30.45;11.18;;;;;;;;;;2064820;28;103141;-23
2021/08/05 12:46:23;;;;;;;30.60;10.32;;;;;;;;;;2064653;28;100217;-18
2021/08/05 12:47:25;;;;;;;26.13;9.25;;;;;;;;;;2048596;28;100281;-21
2021/08/05 12:48:27;;;;;;;19.20;7.65;;;;;;;;;;2056008;28;99935;-19
2021/08/05 12:49:32;;;;;;;25.23;8.30;;;;;;;;;;2056424;28;100222;-22
2021/08/05 12:50:41;;;;;;;24.08;9.05;;;;;;;;;;2049124;28;100453;-20
2021/08/05 12:51:44;;;;;;;22.52;8.88;;;;;;;;;;2064547;28;100528;-22
2021/08/05 12:52:47;;;;;;;25.83;9.05;;;;;;;;;;2056582;28;99967;-22
2021/08/05 12:53:51;;;;;;;26.75;9.35;;;;;;;;;;2048537;28;100133;-23
2021/08/05 12:54:57;;;;;;;22.00;9.05;;;;;;;;;;2064831;28;99998;-20
2021/08/05 12:56:02;;;;;;;27.23;9.60;;;;;;;;;;2048916;28;100118;-20
2021/08/05 12:57:14;;;;;;;25.48;8.13;;;;;;;;;;2057850;28;100191;-19
2021/08/05 12:58:21;;;;;;;19.05;8.90;;;;;;;;;;2081059;27;100501;-21
2021/08/05 12:59:45;;;;;;;21.38;8.45;;;;;;;;;;2064050;28;100144;-19
2021/08/05 13:00:53;;;;;;;23.20;8.45;;;;;;;;;;2059497;28;100046;-20
2021/08/05 13:02:11;;;;;;;20.42;8.13;;;;;;;;;;2057592;28;99889;-21
2021/08/05 13:03:14;;;;;;;24.50;9.00;;;;;;;;;;2050576;28;100039;-20
2021/08/05 13:04:26;;;;;;;25.15;8.80;;;;;;;;;;2057850;28;100362;-27
2021/08/05 13:05:29;;;;;;;19.80;8.27;;;;;;;;;;2049821;28;100018;-26
2021/08/05 13:07:04;;;;;;;27.30;9.27;;;;;;;;;;2048344;28;100063;-19
2021/08/05 13:08:08;;;;;;;23.27;8.40;;;;;;;;;;2047260;28;100299;-22
2021/08/05 13:09:11;;;;;;;22.80;8.30;;;;;;;;;;2044667;28;100168;-20
2021/08/05 13:10:12;;;;;;;22.08;7.47;;;;;;;;;;2048858;28;100341;-20
2021/08/05 13:11:34;;;;;;;20.58;8.23;;;;;;;;;;2048357;28;100153;-21
2021/08/05 13:12:46;;;;;;;23.38;8.70;;;;;;;;;;2064360;28;100537;-21
2021/08/05 13:13:56;;;;;;;17.52;7.50;;;;;;;;;;2057583;28;100123;-23
2021/08/05 13:15:02;;;;;;;20.63;7.28;;;;;;;;;;2066928;28;100091;-19
2021/08/05 13:16:24;;;;;;;23.48;7.60;;;;;;;;;;2064292;28;100001;-21
2021/08/05 13:17:36;;;;;;;19.75;7.30;;;;;;;;;;2065207;28;100113;-21
2021/08/05 13:18:37;;;;;;;17.48;7.35;;;;;;;;;;2080827;28;99965;-22
2021/08/05 13:19:52;;;;;;;18.38;7.28;;;;;;;;;;2071917;28;100239;-24
2021/08/05 13:21:10;;;;;;;17.50;7.00;;;;;;;;;;2067903;28;99903;-22
2021/08/05 13:22:13;;;;;;;20.15;7.35;;;;;;;;;;2058234;28;99918;-22
2021/08/05 13:23:27;;;;;;;21.00;7.78;;;;;;;;;;2041510;28;100004;-19
2021/08/05 13:24:31;;;;;;;16.88;7.15;;;;;;;;;;2056848;28;100044;-24
2021/08/05 13:25:43;;;;;;;23.35;7.35;;;;;;;;;;2071676;28;100436;-19
2021/08/05 13:26:53;;;;;;;20.08;6.63;;;;;;;;;;2077986;27;100638;-22
2021/08/05 13:28:16;;;;;;;16.65;6.25;;;;;;;;;;2066864;28;100131;-18
2021/08/05 13:29:40;;;;;;;18.27;6.60;;;;;;;;;;2065211;28;100302;-19
2021/08/05 13:31:03;;;;;;;19.50;6.40;;;;;;;;;;2074006;28;99985;-22
2021/08/05 13:32:10;;;;;;;18.55;6.60;;;;;;;;;;2059020;28;100081;-28
2021/08/05 13:33:25;;;;;;;18.33;6.40;;;;;;;;;;2062823;28;100313;-24
2021/08/05 13:34:31;;;;;;;20.17;6.28;;;;;;;;;;2066188;28;100535;-22
2021/08/05 13:35:46;;;;;;;15.15;5.88;;;;;;;;;;2061714;28;100517;-23
2021/08/05 13:36:46;;;;;;;20.45;6.53;;;;;;;;;;2074763;28;100224;-20
2021/08/05 13:38:03;;;;;;;16.27;6.03;;;;;;;;;;2081674;27;100118;-22
2021/08/05 13:39:07;;;;;;;12.40;5.38;;;;;;;;;;2073811;28;100052;-24
2021/08/05 13:40:16;;;;;;;16.73;5.68;;;;;;;;;;2048250;28;100095;-19
2021/08/05 13:41:17;;;;;;;11.45;5.70;;;;;;;;;;2058482;28;100184;-23
2021/08/05 13:42:18;;;;;;;;;;;;;;;;;;2076841;28;99974;-22
2021/08/05 13:43:19;;;;;;;;;;;;;;;;;;2081224;28;100597;-21
2021/08/05 13:44:20;;;;;;;12.27;5.10;;;;;;;;;;2080753;28;100221;-23
2021/08/05 13:45:22;;;;;;;15.45;5.35;;;;;;;;;;2082694;27;99968;-22
2021/08/05 13:46:24;;;;;;;13.82;5.18;;;;;;;;;;2073860;28;100194;-23
2021/08/05 13:47:25;;;;;;;14.00;5.32;;;;;;;;;;2066456;28;100026;-21
2021/08/05 13:48:28;;;;;;;12.90;4.45;;;;;;;;;;2065500;28;100005;-24
2021/08/05 13:49:29;;;;;;;14.77;5.35;;;;;;;;;;2082205;28;100199;-19
2021/08/05 13:50:33;;;;;;;12.27;5.20;;;;;;;;;;2082869;27;100522;-19
2021/08/05 13:51:33;;;;;;;13.93;4.75;;;;;;;;;;2082861;28;99935;-21
2021/08/05 13:52:34;;;;;;;;;;;;;;;;;;2083124;27;100229;-20
2021/08/05 13:53:36;;;;;;;11.35;4.78;;;;;;;;;;2082686;27;99874;-21
2021/08/05 13:54:38;;;;;;;12.55;4.32;;;;;;;;;;2082501;27;99993;-22
2021/08/05 13:55:40;;;;;;;12.88;4.65;;;;;;;;;;2083038;27;100028;-22
2021/08/05 13:56:43;;;;;;;12.07;4.63;;;;;;;;;;2081969;27;100035;-20
2021/08/05 13:57:45;;;;;;;12.15;4.53;;;;;;;;;;2073913;28;100098;-21
2021/08/05 13:58:47;;;;;;;12.30;4.22;;;;;;;;;;2049650;28;100187;-22
2021/08/05 13:59:49;;;;;;;14.48;4.95;;;;;;;;;;2066097;28;100348;-22
2021/08/05 14:00:53;;;;;;;11.82;3.95;;;;;;;;;;2057212;28;100012;-21
2021/08/05 14:01:56;;;;;;;13.00;4.55;;;;;;;;;;2042842;28;100000;-21
2021/08/05 18:02:14;;;;;;;9.88;3.20;;;;;;;;;;2089980;27;99990;-19
2021/08/05 18:03:15;;;;;;;9.20;3.58;;;;;;;;;;2080347;27;99962;-21
2021/08/05 18:04:16;;;;;;;;;;;;;;;;;;2080982;28;99860;-16
2021/08/05 18:05:17;;;;;;;12.30;3.10;;;;;;;;;;2079753;28;100273;-18
2021/08/05 18:06:17;;;;;;;13.02;3.55;;;;;;;;;;2080419;28;100571;-21
2021/08/05 18:07:18;;;;;;;;;;;;;;;;;;2081166;27;100290;-18
2021/08/05 18:08:21;;;;;;;9.63;3.00;;;;;;;;;;2081108;28;100515;-20
2021/08/05 18:09:22;;;;;;;9.30;3.10;;;;;;;;;;2080209;28;100052;-18
2021/08/05 18:10:23;;;;;;;13.75;3.35;;;;;;;;;;2071712;28;99930;-20
2021/08/05 18:11:24;;;;;;;;;;;;;;;;;;2080789;28;100122;-21
2021/08/05 18:12:25;;;;;;;;;;;;;;;;;;2080953;27;100001;-20
2021/08/05 18:13:26;;;;;;;9.50;3.50;;;;;;;;;;2071589;28;100312;-20
2021/08/05 18:14:26;;;;;;;;;;;;;;;;;;2072313;28;100045;-18
2021/08/05 18:15:28;;;;;;;11.93;3.38;;;;;;;;;;2080246;28;100258;-20
2021/08/05 18:16:29;;;;;;;11.30;3.55;;;;;;;;;;2080040;28;100016;-21
2021/08/05 18:17:29;;;;;;;;;;;;;;;;;;2080863;28;99963;-20
2021/08/05 18:18:30;;;;;;;9.23;3.40;;;;;;;;;;2081175;28;99918;-22
2021/08/05 18:19:31;;;;;;;10.85;3.25;;;;;;;;;;2080873;28;100204;-21
2021/08/05 18:20:32;;;;;;;;;;;;;;;;;;2080805;27;99962;-18
2021/08/05 18:21:33;;;;;;;8.77;3.20;;;;;;;;;;2080057;28;100092;-19
2021/08/05 18:22:38;;;;;;;8.38;2.83;;;;;;;;;;2078081;28;99911;-18
2021/08/05 18:23:41;;;;;;;15.52;3.47;;;;;;;;;;2080742;28;99947;-21
2021/08/05 18:24:42;;;;;;;11.57;3.50;;;;;;;;;;2088015;27;99900;-21
2021/08/05 18:25:43;;;;;;;;;;;;;;;;;;2089673;27;99869;-21
2021/08/05 18:26:44;;;;;;;9.40;3.20;;;;;;;;;;2089296;27;99997;-23
2021/08/05 18:27:45;;;;;;;9.60;3.28;;;;;;;;;;2089210;27;99878;-19
2021/08/05 18:28:46;;;;;;;12.65;2.92;;;;;;;;;;2089093;27;100297;-20
2021/08/05 18:29:47;;;;;;;;;;;;;;;;;;2089556;27;100023;-21
2021/08/05 18:30:48;;;;;;;9.60;2.90;;;;;;;;;;2088943;27;99986;-20
2021/08/05 18:31:49;;;;;;;9.40;3.75;;;;;;;;;;2089062;27;100105;-19
2021/08/05 18:32:50;;;;;;;;;;;;;;;;;;2089399;27;99917;-20
2021/08/05 18:33:50;;;;;;;11.75;4.55;;;;;;;;;;2089118;27;100069;-20
2021/08/05 18:34:51;;;;;;;12.73;4.22;;;;;;;;;;2089164;27;99874;-22
2021/08/05 18:35:52;;;;;;;;;;;;;;;;;;2089320;27;100448;-20
2021/08/05 18:36:53;;;;;;;12.73;4.50;;;;;;;;;;2089473;27;99915;-19
2021/08/05 18:37:54;;;;;;;11.77;4.47;;;;;;;;;;2089121;27;99896;-22
2021/08/05 18:38:55;;;;;;;;;;;;;;;;;;2089411;27;99973;-20
2021/08/05 18:39:57;;;;;;;12.50;4.57;;;;;;;;;;2088839;27;100246;-20
2021/08/05 18:40:57;;;;;;;18.92;4.68;;;;;;;;;;2082544;27;100117;-22
2021/08/05 18:41:58;;;;;;;;;;;;;;;;;;2080652;27;100557;-22
2021/08/05 18:42:59;;;;;;;27.27;9.10;;;;;;;;;;2076904;28;100349;-21
2021/08/05 18:44:01;;;;;;;17.92;6.47;;;;;;;;;;2071059;28;100383;-18
2021/08/05 18:45:02;;;;;;;16.75;6.57;;;;;;;;;;2079942;28;100284;-19
2021/08/05 18:46:04;;;;;;;16.90;6.35;;;;;;;;;;2071873;28;100005;-20
2021/08/05 18:47:06;;;;;;;19.05;7.40;;;;;;;;;;2072121;28;99909;-20
2021/08/05 18:48:08;;;;;;;15.35;6.70;;;;;;;;;;2071406;28;100006;-22
2021/08/05 18:49:10;;;;;;;26.50;8.80;;;;;;;;;;2071545;28;100073;-21
2021/08/05 18:50:11;;;;;;;22.48;8.25;;;;;;;;;;2080363;28;99890;-20
2021/08/05 18:51:15;;;;;;;19.17;8.70;;;;;;;;;;2080572;28;99933;-19
2021/08/05 18:52:16;;;;;;;20.55;7.88;;;;;;;;;;2080712;28;99905;-21
2021/08/05 18:53:17;;;;;;;19.70;8.32;;;;;;;;;;2080259;28;100161;-22
2021/08/05 18:54:18;;;;;;;18.45;7.95;;;;;;;;;;2071217;28;100068;-21
2021/08/05 18:55:19;;;;;;;;;;;;;;;;;;2071903;28;100014;-18
2021/08/05 18:56:20;;;;;;;18.98;7.43;;;;;;;;;;2080162;28;99976;-19
2021/08/05 18:57:21;;;;;;;;;;;;;;;;;;2081012;28;100316;-20
2021/08/05 18:58:21;;;;;;;19.23;7.93;;;;;;;;;;2080941;28;100152;-21
2021/08/05 18:59:23;;;;;;;18.63;6.55;;;;;;;;;;2080475;28;99939;-20
2021/08/05 19:00:24;;;;;;;15.35;7.30;;;;;;;;;;2082003;27;100028;-17
2021/08/05 19:01:27;;;;;;;20.17;7.18;;;;;;;;;;2079278;28;99911;-16
2021/08/05 19:02:28;;;;;;;17.48;6.90;;;;;;;;;;2079358;28;100142;-20
2021/08/05 19:03:29;;;;;;;19.25;7.03;;;;;;;;;;2082736;28;100120;-20
2021/08/05 19:04:30;;;;;;;20.02;7.45;;;;;;;;;;2083338;28;100006;-23
2021/08/05 19:05:32;;;;;;;15.23;6.60;;;;;;;;;;2082735;28;100056;-19
2021/08/05 19:06:33;;;;;;;;;;;;;;;;;;2074459;28;99932;-19
2021/08/05 19:07:34;;;;;;;18.75;7.65;;;;;;;;;;2074292;28;99966;-18
2021/08/05 19:08:35;;;;;;;19.42;6.97;;;;;;;;;;2083370;28;99886;-23
2021/08/05 19:09:36;;;;;;;18.25;6.80;;;;;;;;;;2083106;28;100006;-21
2021/08/05 19:10:37;;;;;;;;;;;;;;;;;;2083786;28;100514;-19
2021/08/05 19:11:38;;;;;;;16.63;6.85;;;;;;;;;;2083109;28;100017;-19
2021/08/05 19:12:39;;;;;;;18.83;6.80;;;;;;;;;;2083195;28;100069;-20
2021/08/05 19:13:41;;;;;;;16.40;6.28;;;;;;;;;;2082671;28;99927;-19
2021/08/05 19:14:42;;;;;;;;;;;;;;;;;;2083721;28;100196;-22
2021/08/05 19:15:43;;;;;;;18.15;7.10;;;;;;;;;;2083060;28;100055;-21
2021/08/05 19:16:44;;;;;;;21.45;8.10;;;;;;;;;;2083087;28;99866;-18
2021/08/05 19:17:45;;;;;;;25.08;7.60;;;;;;;;;;2082816;28;99926;-20
2021/08/05 19:18:45;;;;;;;;;;;;;;;;;;2083899;28;99956;-20
2021/08/05 19:19:46;;;;;;;21.48;8.63;;;;;;;;;;2083026;28;99936;-18
2021/08/05 19:20:49;;;;;;;20.52;8.13;;;;;;;;;;2083379;28;100211;-21
2021/08/05 19:21:50;;;;;;;20.15;8.23;;;;;;;;;;2083113;28;100003;-22
2021/08/05 19:22:50;;;;;;;;;;;;;;;;;;2083558;28;100079;-19
2021/08/05 19:23:51;;;;;;;18.35;7.57;;;;;;;;;;2083053;28;100495;-20
2021/08/05 19:24:52;;;;;;;;;;;;;;;;;;2083630;28;99813;-17
2021/08/05 19:25:53;;;;;;;17.23;7.65;;;;;;;;;;2083170;28;100063;-21
2021/08/05 19:26:54;;;;;;;18.77;7.30;;;;;;;;;;2083534;28;99911;-24
2021/08/05 19:27:55;;;;;;;;;;;;;;;;;;2074066;28;100429;-20
2021/08/05 19:28:56;;;;;;;19.58;8.02;;;;;;;;;;2074604;28;100357;-20
2021/08/05 19:29:57;;;;;;;19.08;7.63;;;;;;;;;;2083240;28;100353;-21
2021/08/05 19:30:59;;;;;;;;;;;;;;;;;;2083879;28;99983;-18
2021/08/05 19:32:00;;;;;;;21.50;7.45;;;;;;;;;;2082830;28;100336;-22
2021/08/05 19:33:01;;;;;;;;;;;;;;;;;;2083398;28;99912;-20
2021/08/05 19:34:03;;;;;;;21.13;6.90;;;;;;;;;;2083460;28;100108;-20
2021/08/05 19:35:05;;;;;;;22.20;7.85;;;;;;;;;;2076502;28;99922;-21
2021/08/05 19:36:06;;;;;;;19.02;7.53;;;;;;;;;;2074778;28;100304;-18
2021/08/05 19:37:07;;;;;;;;;;;;;;;;;;2074449;28;99926;-21
2021/08/05 19:38:08;;;;;;;16.88;7.63;;;;;;;;;;2073526;28;100557;-22
2021/08/05 19:39:09;;;;;;;20.65;7.65;;;;;;;;;;2073322;28;100126;-23
2021/08/05 19:40:11;;;;;;;17.73;8.15;;;;;;;;;;2054450;28;100643;-20